Time;durP1;ratioP1;P1;durP2;ratioP2;P2;SDS_P1;SDS_P2;PMS_P1;PMS_P2;Temp;Humidity;BMP_temperature;BMP_pressure;BME280_temperature;BME280_humidity;BME280_pressure;Samples;Min_cycle;Max_cycle;Signal;HPM_P1;HPM_P2
2022/01/14 00:01:47;;;;;;;91.95;34.75;;;;;;;1.41;75.57;102079.13;5000585;28;20534;-82
2022/01/14 00:04:14;;;;;;;90.60;31.42;;;;;;;1.40;75.78;102080.88;4983624;28;20363;-82
2022/01/14 00:06:41;;;;;;;96.47;33.90;;;;;;;1.40;75.34;102072.13;4982299;28;20055;-82
2022/01/14 00:09:10;;;;;;;91.05;31.63;;;;;;;1.40;75.46;102074.75;4986321;28;20051;-82
2022/01/14 00:11:41;;;;;;;90.13;33.35;;;;;;;1.40;75.30;102074.75;4973319;28;20046;-82
2022/01/14 00:14:22;;;;;;;89.80;32.30;;;;;;;1.39;75.73;102073.03;4965508;28;20047;-82
2022/01/14 00:16:52;;;;;;;83.65;30.58;;;;;;;1.38;75.49;102077.41;4982192;28;20459;-82
2022/01/14 00:19:18;;;;;;;92.20;34.15;;;;;;;1.39;75.42;102076.50;5000267;28;20045;-82
2022/01/14 00:21:46;;;;;;;93.47;34.10;;;;;;;1.39;75.61;102073.91;4983447;28;20121;-82
2022/01/14 00:32:58;;;;;;;77.97;31.90;;;;;;;1.36;75.50;102063.47;4954369;28;20141;-82
2022/01/14 00:35:05;;;;;;;81.70;30.13;;;;;;;1.34;75.47;102051.31;4946369;28;20137;-81
2022/01/14 00:37:31;;;;;;;89.97;32.65;;;;;;;1.34;75.64;102053.91;5003573;28;20125;-82
2022/01/14 00:39:58;;;;;;;80.93;29.60;;;;;;;1.33;75.42;102047.81;5004016;28;20041;-82
2022/01/14 00:42:25;;;;;;;87.47;31.38;;;;;;;1.34;75.46;102054.78;5004701;28;20053;-82
2022/01/14 00:44:52;;;;;;;87.25;32.53;;;;;;;1.33;75.67;102063.53;5001968;28;20046;-82
2022/01/14 00:47:19;;;;;;;84.18;30.00;;;;;;;1.33;75.27;102057.44;5003608;28;20185;-82
2022/01/14 00:49:45;;;;;;;77.55;31.25;;;;;;;1.32;75.40;102051.31;4987758;28;20045;-82
2022/01/14 00:52:12;;;;;;;85.10;33.05;;;;;;;1.32;75.42;102055.69;4969138;28;20044;-82
2022/01/14 00:54:39;;;;;;;80.75;28.88;;;;;;;1.31;75.70;102054.81;5006451;28;20045;-82
2022/01/14 00:59:35;;;;;;;91.03;32.83;;;;;;;1.31;75.70;102054.81;4987611;28;20513;-82
2022/01/14 01:02:02;;;;;;;90.03;32.30;;;;;;;1.31;75.64;102046.97;5002956;28;20133;-82
2022/01/14 01:04:34;;;;;;;85.60;31.17;;;;;;;1.31;75.41;102057.44;5006426;28;20116;-82
2022/01/14 01:07:04;;;;;;;91.47;32.63;;;;;;;1.31;75.52;102049.59;5008028;28;20038;-82
2022/01/14 01:09:31;;;;;;;97.40;33.67;;;;;;;1.30;75.57;102053.09;4985982;28;20053;-82
2022/01/14 01:12:13;;;;;;;80.45;30.13;;;;;;;1.29;75.54;102052.22;4986952;28;20045;-82
2022/01/14 01:14:48;;;;;;;83.43;30.83;;;;;;;1.27;75.42;102045.28;4983957;28;20041;-82
2022/01/14 01:17:16;;;;;;;73.53;28.77;;;;;;;1.28;75.59;102052.25;5003297;28;20347;-82
2022/01/14 01:19:43;;;;;;;82.78;32.92;;;;;;;1.28;75.37;102039.19;4986737;28;20046;-82
2022/01/14 01:22:10;;;;;;;92.13;31.73;;;;;;;1.27;75.19;102033.06;5006254;28;20052;-82
2022/01/14 01:24:48;;;;;;;73.85;27.73;;;;;;;1.24;75.42;102035.72;4981253;28;20520;-82
2022/01/14 01:27:17;;;;;;;82.10;27.63;;;;;;;1.23;75.27;102031.38;4985647;28;20424;-82
2022/01/14 01:29:50;;;;;;;76.82;26.83;;;;;;;1.25;75.33;102034.00;5003046;28;20079;-82
2022/01/14 01:32:17;;;;;;;65.47;24.83;;;;;;;1.23;75.03;102034.00;4975514;28;20040;-82
2022/01/14 01:34:44;;;;;;;78.70;29.52;;;;;;;1.22;75.15;102034.91;4970727;28;20135;-81
2022/01/14 01:37:11;;;;;;;68.20;26.05;;;;;;;1.21;75.06;102037.53;5000603;28;20045;-82
2022/01/14 01:39:37;;;;;;;91.25;31.77;;;;;;;1.20;75.30;102031.44;4999897;28;20046;-82
2022/01/14 01:42:08;;;;;;;81.47;29.45;;;;;;;1.20;75.22;102033.19;5002027;28;20401;-82
2022/01/14 01:44:37;;;;;;;76.38;28.52;;;;;;;1.20;75.19;102033.19;4986969;28;20054;-82
2022/01/14 01:47:05;;;;;;;84.85;29.98;;;;;;;1.19;75.28;102034.06;5002977;28;20049;-82
2022/01/14 01:49:35;;;;;;;91.90;30.40;;;;;;;1.17;74.95;102025.34;5001464;28;20045;-82
2022/01/14 01:52:03;;;;;;;79.40;29.40;;;;;;;1.17;75.05;102028.88;4987463;28;20037;-82
2022/01/14 01:54:30;;;;;;;81.05;31.02;;;;;;;1.15;75.21;102017.56;4972299;28;20408;-82
2022/01/14 01:56:58;;;;;;;77.93;30.00;;;;;;;1.15;75.17;102017.56;4999985;28;20056;-82
2022/01/14 01:59:25;;;;;;;84.30;28.67;;;;;;;1.16;75.06;102019.25;5014813;28;20046;-82
2022/01/14 02:01:53;;;;;;;79.75;31.33;;;;;;;1.15;75.35;102016.69;5016680;28;20048;-82
2022/01/14 02:04:19;;;;;;;79.25;28.92;;;;;;;1.14;74.90;102012.31;4995546;28;20053;-82
2022/01/14 02:06:46;;;;;;;80.65;28.52;;;;;;;1.14;75.31;102015.81;5001572;28;20046;-82
2022/01/14 02:09:14;;;;;;;83.43;30.17;;;;;;;1.13;75.06;102019.31;5006265;28;20132;-82
2022/01/14 02:11:41;;;;;;;78.65;29.65;;;;;;;1.13;75.07;102021.94;4985316;28;20046;-82
2022/01/14 02:14:24;;;;;;;82.18;30.17;;;;;;;1.11;75.14;102015.84;4999356;28;20044;-82
2022/01/14 02:17:28;;;;;;;95.15;32.20;;;;;;;1.13;75.11;102016.69;4983044;28;20144;-82
2022/01/14 02:22:49;;;;;;;75.60;30.40;;;;;;;1.10;75.10;102015.91;4953143;28;20061;-81
2022/01/14 02:25:23;;;;;;;85.50;31.70;;;;;;;1.10;75.01;102010.66;4985024;28;20126;-82
2022/01/14 02:27:50;;;;;;;87.03;30.80;;;;;;;1.10;75.08;102005.44;4985838;28;20497;-82
2022/01/14 02:30:16;;;;;;;82.65;30.10;;;;;;;1.09;74.98;102004.53;4983284;28;20045;-82
2022/01/14 02:32:43;;;;;;;80.95;30.80;;;;;;;1.08;74.84;102001.06;4965950;28;20042;-82
2022/01/14 02:35:10;;;;;;;79.93;29.73;;;;;;;1.07;74.98;101999.34;5004212;28;20516;-82
2022/01/14 02:37:42;;;;;;;79.75;28.83;;;;;;;1.07;74.97;101998.50;4985466;28;20073;-82
2022/01/14 02:40:09;;;;;;;94.70;31.08;;;;;;;1.06;74.90;101992.38;5003356;28;20042;-82
2022/01/14 02:42:36;;;;;;;77.55;30.23;;;;;;;1.05;74.98;101989.78;5004293;28;20050;-82
2022/01/14 02:45:06;;;;;;;84.60;30.27;;;;;;;1.05;75.09;101989.78;4989047;28;20124;-82
2022/01/14 02:47:33;;;;;;;80.78;31.48;;;;;;;1.04;74.94;101991.53;4989114;28;20042;-82
2022/01/14 02:50:00;;;;;;;85.10;31.80;;;;;;;1.04;74.78;101993.28;4996661;28;20046;-81
2022/01/14 02:52:41;;;;;;;82.50;32.05;;;;;;;1.03;74.97;101983.72;5021378;23;20045;-84
2022/01/14 02:55:18;;;;;;;87.28;31.25;;;;;;;1.00;74.92;101982.00;5024333;28;20041;-83
2022/01/14 02:57:50;;;;;;;126.20;35.08;;;;;;;0.98;74.79;101983.75;5016951;28;20049;-84
2022/01/14 03:00:19;;;;;;;105.50;32.75;;;;;;;0.96;75.06;101982.91;5011870;28;20080;-83
2022/01/14 03:02:48;;;;;;;95.05;33.75;;;;;;;0.95;75.37;101973.34;4999908;28;20064;-84
2022/01/14 03:05:17;;;;;;;109.13;36.33;;;;;;;0.95;75.51;101975.97;5004340;28;20037;-81
2022/01/14 03:07:44;;;;;;;99.38;33.40;;;;;;;0.95;75.43;101975.97;5010511;28;20400;-82
2022/01/14 03:10:13;;;;;;;107.30;32.35;;;;;;;0.96;75.30;101967.22;4998173;28;20053;-81
2022/01/14 03:12:41;;;;;;;106.75;32.60;;;;;;;0.97;75.55;101970.72;5001460;28;20064;-81
2022/01/14 03:15:08;;;;;;;97.22;32.78;;;;;;;0.96;75.52;101967.22;5021579;28;20503;-81
2022/01/14 03:17:35;;;;;;;91.68;30.95;;;;;;;0.94;75.58;101966.41;5014084;28;20519;-81
2022/01/14 03:20:04;;;;;;;88.57;31.00;;;;;;;0.95;75.58;101973.34;5014417;28;20439;-81
2022/01/14 03:22:35;;;;;;;83.43;32.53;;;;;;;0.96;75.69;101977.69;5015779;28;20057;-82
2022/01/14 03:27:53;;;;;;;82.65;30.63;;;;;;;0.96;75.78;101977.69;5023615;28;20045;-81
2022/01/14 03:30:20;;;;;;;96.32;30.48;;;;;;;0.96;75.65;101971.59;5017609;28;20087;-82
2022/01/14 03:32:47;;;;;;;84.38;30.52;;;;;;;0.97;75.87;101981.19;5014144;28;20053;-81
2022/01/14 03:35:14;;;;;;;87.32;31.25;;;;;;;0.95;75.86;101981.19;5004159;28;20449;-81
2022/01/14 03:37:40;;;;;;;83.47;28.85;;;;;;;0.94;75.70;101976.88;4982587;28;20099;-82
2022/01/14 03:40:07;;;;;;;81.95;29.83;;;;;;;0.96;75.68;101982.06;5001622;28;20045;-81
2022/01/14 03:42:34;;;;;;;91.72;29.73;;;;;;;0.95;75.69;101964.66;5019531;28;20045;-82
2022/01/14 03:45:01;;;;;;;106.65;33.80;;;;;;;0.94;75.76;101966.41;4980375;28;20057;-82
2022/01/14 03:47:27;;;;;;;95.95;31.88;;;;;;;0.94;76.08;101961.16;5013718;28;20100;-81
2022/01/14 03:49:54;;;;;;;83.75;27.27;;;;;;;0.93;75.73;101961.19;5019508;28;20091;-82
2022/01/14 03:52:21;;;;;;;81.60;29.70;;;;;;;0.92;75.87;101952.47;4989903;28;20048;-81
2022/01/14 03:54:48;;;;;;;80.93;30.35;;;;;;;0.91;75.71;101960.34;5014251;28;20041;-82
2022/01/14 03:57:35;;;;;;;92.10;31.80;;;;;;;0.91;75.95;101957.72;4999516;28;20067;-81
2022/01/14 04:00:04;;;;;;;98.55;32.58;;;;;;;0.90;75.90;101959.47;4986195;28;20048;-82
2022/01/14 04:02:30;;;;;;;88.78;31.00;;;;;;;0.90;75.79;101953.38;5012174;28;20046;-82
2022/01/14 04:04:57;;;;;;;82.95;29.85;;;;;;;0.90;75.86;101954.25;5002450;28;20601;-82
2022/01/14 04:07:23;;;;;;;84.70;28.77;;;;;;;0.88;75.92;101953.41;5002604;28;20503;-83
2022/01/14 04:09:50;;;;;;;94.43;28.90;;;;;;;0.88;76.03;101950.78;5018101;28;20042;-83
2022/01/14 04:12:30;;;;;;;78.90;29.63;;;;;;;0.90;75.99;101956.00;5007919;28;20050;-84
2022/01/14 04:17:23;;;;;;;107.75;37.00;;;;;;;0.88;76.25;101948.16;5015745;28;20041;-84
2022/01/14 04:19:50;;;;;;;181.75;61.08;;;;;;;0.88;75.95;101944.69;5018895;28;20045;-84
2022/01/14 04:22:17;;;;;;;95.25;31.98;;;;;;;0.86;75.93;101944.69;5005861;28;20072;-83
2022/01/14 04:24:43;;;;;;;83.28;29.13;;;;;;;0.85;76.00;101929.91;5031934;28;20053;-83
2022/01/14 04:27:23;;;;;;;96.25;29.50;;;;;;;0.80;76.35;101934.34;5019454;28;20041;-84
2022/01/14 04:29:52;;;;;;;91.32;30.95;;;;;;;0.85;76.28;101929.91;4984936;28;20045;-84
2022/01/14 04:32:18;;;;;;;85.50;32.33;;;;;;;0.84;76.23;101923.81;5003577;28;20045;-84
2022/01/14 04:34:45;;;;;;;86.57;30.25;;;;;;;0.84;76.23;101926.44;5023181;28;20050;-84
2022/01/14 04:37:12;;;;;;;68.13;27.30;;;;;;;0.85;76.38;101927.28;5018292;28;20052;-84
2022/01/14 04:39:38;;;;;;;75.32;27.95;;;;;;;0.83;76.24;101929.06;5018848;28;20520;-83
2022/01/14 04:42:06;;;;;;;68.03;26.90;;;;;;;0.83;76.10;101923.81;4987303;28;20061;-83
2022/01/14 04:44:32;;;;;;;88.68;27.85;;;;;;;0.82;76.41;101924.72;4989518;28;20053;-83
2022/01/14 04:47:12;;;;;;;68.38;25.55;;;;;;;0.82;76.05;101933.44;5020584;28;20068;-84
2022/01/14 04:49:39;;;;;;;84.07;26.20;;;;;;;0.82;76.08;101929.97;4953519;28;20493;-83
2022/01/14 04:52:06;;;;;;;62.00;24.25;;;;;;;0.78;76.20;101929.13;4980285;28;20042;-84
2022/01/14 04:54:34;;;;;;;64.82;22.48;;;;;;;0.72;76.15;101941.44;4963497;28;20046;-84
2022/01/14 04:57:02;;;;;;;56.20;21.45;;;;;;;0.65;75.98;101938.88;4948228;28;20054;-79
2022/01/14 04:59:29;;;;;;;54.88;20.70;;;;;;;0.64;75.83;101931.94;4961927;28;20126;-78
2022/01/14 05:01:57;;;;;;;57.20;19.60;;;;;;;0.64;75.88;101929.31;4949834;28;20065;-79
2022/01/14 05:04:24;;;;;;;59.00;20.25;;;;;;;0.64;76.11;101929.31;4952436;28;20457;-79
2022/01/14 05:06:57;;;;;;;52.53;19.50;;;;;;;0.66;75.96;101937.13;4935770;28;20501;-79
2022/01/14 05:09:37;;;;;;;48.53;19.38;;;;;;;0.58;76.04;101933.75;4948981;28;20039;-79
2022/01/14 05:12:08;;;;;;;53.58;20.23;;;;;;;0.60;76.13;101934.59;4984020;28;20046;-78
2022/01/14 05:14:36;;;;;;;56.35;20.55;;;;;;;0.62;76.19;101930.22;4932840;28;20533;-79
2022/01/14 05:17:58;;;;;;;54.40;20.65;;;;;;;0.56;76.22;101930.28;4914702;28;20148;-81
2022/01/14 05:24:40;;;;;;;43.30;17.80;;;;;;;0.56;76.31;101925.97;4977251;28;20060;-78
2022/01/14 05:27:09;;;;;;;46.78;18.15;;;;;;;0.61;76.15;101926.75;4994192;28;20057;-79
2022/01/14 05:29:35;;;;;;;51.78;20.30;;;;;;;0.62;76.32;101919.78;4989684;28;20408;-79
2022/01/14 05:32:33;;;;;;;67.70;24.38;;;;;;;0.57;76.30;101914.59;5003100;28;20535;-79
2022/01/14 05:35:00;;;;;;;71.80;27.92;;;;;;;0.63;76.28;101911.03;4969765;28;20136;-79
2022/01/14 05:37:26;;;;;;;68.45;28.90;;;;;;;0.64;76.28;101908.41;4990574;28;20042;-79
2022/01/14 05:39:56;;;;;;;62.03;26.90;;;;;;;0.65;76.31;101910.13;4988663;28;20068;-78
2022/01/14 05:42:23;;;;;;;72.30;27.85;;;;;;;0.67;76.24;101917.97;4992360;28;20048;-78
2022/01/14 05:45:15;;;;;;;65.53;26.00;;;;;;;0.60;76.00;101911.09;4990887;28;20125;-78
2022/01/14 05:47:43;;;;;;;61.22;23.52;;;;;;;0.62;76.00;101901.47;4986760;28;20051;-77
2022/01/14 05:50:12;;;;;;;56.97;23.52;;;;;;;0.64;75.95;101905.78;4954498;28;20050;-79
2022/01/14 05:52:40;;;;;;;59.13;25.00;;;;;;;0.64;75.96;101897.94;4994705;28;20039;-78
2022/01/14 05:55:08;;;;;;;57.75;23.40;;;;;;;0.62;75.77;101899.72;4959345;28;20076;-79
2022/01/14 05:57:37;;;;;;;64.10;23.70;;;;;;;0.60;75.86;101885.78;4992081;28;20456;-79
2022/01/14 06:00:06;;;;;;;57.60;25.42;;;;;;;0.62;75.60;101891.00;4980225;28;20556;-79
2022/01/14 06:02:43;;;;;;;66.55;26.63;;;;;;;0.59;75.71;101894.53;4960652;28;20042;-79
2022/01/14 06:05:10;;;;;;;79.82;29.38;;;;;;;0.60;75.38;101895.41;4970883;28;20065;-77
2022/01/14 06:07:36;;;;;;;62.08;24.67;;;;;;;0.58;75.39;101897.16;4966237;28;20045;-78
2022/01/14 06:10:04;;;;;;;56.67;23.35;;;;;;;0.57;75.48;101903.28;4996309;28;20478;-77
2022/01/14 06:12:30;;;;;;;57.92;24.33;;;;;;;0.56;75.36;101905.03;4985544;28;20777;-78
2022/01/14 06:14:57;;;;;;;67.50;24.48;;;;;;;0.55;75.26;101903.28;4977621;28;20045;-78
2022/01/14 06:17:24;;;;;;;68.00;23.42;;;;;;;0.53;75.26;101894.59;4987273;28;20060;-78
2022/01/14 06:19:52;;;;;;;74.10;24.88;;;;;;;0.51;75.32;101896.41;4989754;28;20041;-78
2022/01/14 06:22:21;;;;;;;78.22;26.52;;;;;;;0.50;75.69;101891.19;5006035;28;20639;-77
2022/01/14 06:24:49;;;;;;;72.72;26.85;;;;;;;0.49;75.67;101892.09;4986680;28;20042;-77
2022/01/14 06:27:16;;;;;;;58.78;24.30;;;;;;;0.51;75.84;101898.13;5023082;28;20056;-81
2022/01/14 06:29:43;;;;;;;63.75;24.88;;;;;;;0.52;76.05;101894.66;4992178;28;20080;-78
2022/01/14 06:32:10;;;;;;;63.00;23.50;;;;;;;0.53;76.01;101893.75;4990047;28;20145;-78
2022/01/14 06:34:36;;;;;;;59.03;23.23;;;;;;;0.52;76.08;101895.50;4989684;28;20050;-78
2022/01/14 06:37:03;;;;;;;89.65;26.38;;;;;;;0.53;75.65;101898.97;5003970;28;20408;-78
2022/01/14 06:39:30;;;;;;;67.95;25.50;;;;;;;0.53;76.08;101893.75;5015111;28;20103;-77
2022/01/14 06:41:57;;;;;;;78.43;26.77;;;;;;;0.52;75.92;101894.66;5000069;28;20158;-77
2022/01/14 06:44:24;;;;;;;76.55;28.48;;;;;;;0.53;75.81;101907.69;5003001;28;20073;-77
2022/01/14 06:46:52;;;;;;;70.20;26.33;;;;;;;0.52;75.77;101903.34;5004051;28;20041;-77
2022/01/14 06:49:18;;;;;;;70.60;26.65;;;;;;;0.50;76.06;101914.72;5020559;28;20562;-77
2022/01/14 06:51:45;;;;;;;65.50;24.75;;;;;;;0.49;75.91;101911.22;5020740;28;20736;-77
2022/01/14 06:54:12;;;;;;;66.55;25.25;;;;;;;0.48;75.75;101911.25;5017700;28;20041;-77
2022/01/14 06:56:39;;;;;;;64.53;24.65;;;;;;;0.46;75.86;101919.13;5021718;28;20056;-77
2022/01/14 06:59:17;;;;;;;64.45;25.63;;;;;;;0.43;75.71;101922.66;5008891;28;20055;-76
2022/01/14 07:01:44;;;;;;;55.90;22.80;;;;;;;0.46;76.02;101921.75;5021227;28;20045;-76
2022/01/14 07:04:11;;;;;;;68.90;24.73;;;;;;;0.44;76.10;101920.88;5013488;28;20045;-76
2022/01/14 07:06:38;;;;;;;56.75;22.45;;;;;;;0.45;76.05;101929.59;5020682;28;20052;-76
2022/01/14 07:09:09;;;;;;;57.85;21.73;;;;;;;0.44;76.01;101923.50;4971351;28;20084;-77
2022/01/14 07:11:36;;;;;;;61.15;23.17;;;;;;;0.45;76.03;101932.19;5017660;28;20551;-77
2022/01/14 07:14:04;;;;;;;59.83;23.75;;;;;;;0.44;76.16;101931.34;4984952;28;20157;-77
2022/01/14 07:16:32;;;;;;;65.63;24.65;;;;;;;0.43;76.01;101926.97;4998384;28;20052;-76
2022/01/14 07:19:00;;;;;;;69.88;26.40;;;;;;;0.42;75.96;101931.34;5003473;28;20091;-76
2022/01/14 07:21:27;;;;;;;81.20;32.00;;;;;;;0.43;75.87;101926.97;5000387;28;20041;-76
2022/01/14 07:23:54;;;;;;;80.28;30.35;;;;;;;0.45;76.14;101930.44;4995364;28;20038;-77
2022/01/14 07:26:21;;;;;;;76.25;29.77;;;;;;;0.43;75.95;101930.47;5011178;28;20052;-76
2022/01/14 07:29:18;;;;;;;80.32;29.90;;;;;;;0.39;76.11;101935.75;4983707;28;20044;-77
2022/01/14 07:31:44;;;;;;;79.22;29.85;;;;;;;0.42;75.93;101931.34;5003443;28;20057;-77
2022/01/14 07:34:11;;;;;;;83.93;32.33;;;;;;;0.43;75.75;101924.38;5018867;28;20041;-77
2022/01/14 07:36:38;;;;;;;96.20;32.80;;;;;;;0.41;75.74;101910.47;5019646;28;20497;-77
2022/01/14 07:39:06;;;;;;;86.78;33.65;;;;;;;0.41;75.90;101915.72;4988540;28;20128;-77
2022/01/14 07:41:33;;;;;;;102.07;36.83;;;;;;;0.42;75.73;101914.81;4999104;28;20085;-81
2022/01/14 07:44:00;;;;;;;96.68;34.78;;;;;;;0.42;75.85;101917.41;5022276;28;20046;-81
2022/01/14 07:46:27;;;;;;;92.82;33.28;;;;;;;0.42;75.61;101922.66;5003510;28;20050;-81
2022/01/14 07:48:55;;;;;;;91.35;31.85;;;;;;;0.40;75.97;101925.28;5021698;28;20519;-81
2022/01/14 07:51:22;;;;;;;93.40;33.38;;;;;;;0.40;75.98;101927.03;5003152;28;20095;-82
2022/01/14 07:53:49;;;;;;;93.63;33.45;;;;;;;0.40;75.74;101934.88;5021385;28;20050;-82
2022/01/14 07:56:16;;;;;;;79.32;29.90;;;;;;;0.38;75.65;101937.50;5019257;28;20041;-82
2022/01/14 07:58:42;;;;;;;87.57;31.02;;;;;;;0.38;75.59;101931.41;5019047;28;20041;-81
2022/01/14 08:01:09;;;;;;;83.30;30.25;;;;;;;0.36;75.53;101941.88;5021574;28;20049;-81
2022/01/14 08:03:36;;;;;;;82.75;31.38;;;;;;;0.37;75.67;101943.59;5016512;28;20053;-80
2022/01/14 08:06:04;;;;;;;80.03;30.50;;;;;;;0.36;75.51;101944.50;5019871;28;20042;-80
2022/01/14 08:08:31;;;;;;;83.45;29.10;;;;;;;0.36;75.63;101941.88;5002750;28;20057;-81
2022/01/14 08:10:58;;;;;;;78.88;27.73;;;;;;;0.34;75.64;101948.03;5021219;28;20046;-80
2022/01/14 08:13:24;;;;;;;68.88;25.88;;;;;;;0.36;75.62;101943.66;4998062;28;20104;-80
2022/01/14 08:15:51;;;;;;;62.13;24.15;;;;;;;0.36;75.79;101948.88;5016995;28;20041;-81
2022/01/14 08:18:18;;;;;;;60.03;24.02;;;;;;;0.35;75.65;101953.22;5022411;28;20112;-80
2022/01/14 08:20:45;;;;;;;68.80;26.63;;;;;;;0.36;75.77;101962.78;5005606;28;20045;-81
2022/01/14 08:23:12;;;;;;;67.80;23.92;;;;;;;0.35;75.92;101961.03;5006804;28;20128;-81
2022/01/14 08:25:39;;;;;;;68.13;25.40;;;;;;;0.35;75.85;101955.81;5024012;28;20042;-81
2022/01/14 08:28:05;;;;;;;63.15;24.65;;;;;;;0.37;76.01;101955.81;5014527;28;20493;-83
2022/01/14 08:30:32;;;;;;;64.25;25.75;;;;;;;0.36;76.19;101952.34;4986551;28;20053;-81
2022/01/14 08:32:59;;;;;;;67.00;25.92;;;;;;;0.38;75.81;101955.81;5002259;28;20049;-81
2022/01/14 08:35:26;;;;;;;68.88;24.63;;;;;;;0.39;76.27;101960.13;5003453;28;20041;-81
2022/01/14 08:37:52;;;;;;;74.47;24.75;;;;;;;0.40;76.31;101955.78;5039331;28;20041;-81
2022/01/14 08:40:19;;;;;;;92.22;32.38;;;;;;;0.40;76.21;101961.84;5007101;28;20042;-81
2022/01/14 08:42:51;;;;;;;85.85;32.95;;;;;;;0.43;75.95;101958.34;5001917;28;20416;-82
2022/01/14 08:45:21;;;;;;;89.03;33.97;;;;;;;0.42;76.17;101965.31;5019164;28;20046;-82
2022/01/14 08:47:52;;;;;;;92.63;34.30;;;;;;;0.43;76.14;101961.84;5016676;28;20046;-81
2022/01/14 08:50:23;;;;;;;93.40;34.35;;;;;;;0.43;76.16;101954.00;5005792;28;20097;-82
2022/01/14 08:52:52;;;;;;;86.80;35.30;;;;;;;0.42;75.83;101957.47;5017706;28;20056;-81
2022/01/14 08:55:19;;;;;;;83.95;33.22;;;;;;;0.43;76.01;101963.56;5021377;28;20045;-80
2022/01/14 08:57:47;;;;;;;74.90;31.17;;;;;;;0.43;76.02;101955.72;4997345;28;20060;-80
2022/01/14 09:00:15;;;;;;;64.40;26.58;;;;;;;0.41;76.03;101945.31;5000446;28;20189;-81
2022/01/14 09:02:48;;;;;;;60.10;26.23;;;;;;;0.40;75.86;101940.09;5015147;28;20049;-81
2022/01/14 09:05:14;;;;;;;67.35;27.73;;;;;;;0.39;75.98;101944.47;5019428;28;20101;-81
2022/01/14 09:07:41;;;;;;;72.82;28.30;;;;;;;0.40;75.68;101948.78;5021020;28;20522;-82
2022/01/14 09:10:09;;;;;;;73.15;27.50;;;;;;;0.40;75.98;101945.31;5006013;28;20049;-81
2022/01/14 09:12:35;;;;;;;82.55;31.95;;;;;;;0.40;75.87;101950.53;5004094;28;20045;-81
2022/01/14 09:15:03;;;;;;;65.88;26.13;;;;;;;0.37;75.91;101963.66;5022574;28;20041;-82
2022/01/14 09:17:31;;;;;;;77.70;28.40;;;;;;;0.32;75.89;101958.47;5022780;28;20618;-80
2022/01/14 09:20:03;;;;;;;86.05;29.65;;;;;;;0.32;75.84;101955.88;5020133;28;20068;-81
2022/01/14 09:22:34;;;;;;;74.05;28.05;;;;;;;0.35;76.05;101965.41;5018883;28;20137;-81
2022/01/14 09:25:06;;;;;;;75.65;27.73;;;;;;;0.27;76.06;101959.44;5014788;28;20045;-81
2022/01/14 09:27:34;;;;;;;83.18;29.30;;;;;;;0.32;75.78;101968.94;5004466;28;20068;-81
2022/01/14 09:30:03;;;;;;;84.43;29.73;;;;;;;0.32;76.14;101963.72;5017528;28;20436;-81
2022/01/14 09:32:31;;;;;;;70.35;25.55;;;;;;;0.35;76.26;101962.81;5004012;28;20088;-81
2022/01/14 09:34:58;;;;;;;68.20;26.90;;;;;;;0.37;76.06;101955.81;5018703;28;20389;-81
2022/01/14 09:37:24;;;;;;;67.20;26.08;;;;;;;0.39;76.26;101956.66;4986178;28;20046;-80
2022/01/14 09:39:51;;;;;;;77.43;30.38;;;;;;;0.41;76.17;101957.53;5006061;28;20145;-81
2022/01/14 09:42:18;;;;;;;80.18;29.83;;;;;;;0.43;76.14;101950.50;5019903;28;20072;-81
2022/01/14 09:44:44;;;;;;;73.85;28.58;;;;;;;0.42;76.19;101954.88;5018407;28;20042;-80
2022/01/14 09:47:19;;;;;;;74.47;29.67;;;;;;;0.42;76.08;101959.25;4999928;28;22619;-81
2022/01/14 09:49:47;;;;;;;78.28;29.10;;;;;;;0.46;76.30;101955.72;5019152;28;20057;-81
2022/01/14 09:52:15;;;;;;;64.70;27.02;;;;;;;0.46;75.98;101947.88;5023398;28;20055;-81
2022/01/14 09:54:43;;;;;;;77.35;29.10;;;;;;;0.47;76.19;101949.59;5002131;28;20460;-81
2022/01/14 09:57:12;;;;;;;68.78;27.45;;;;;;;0.49;76.09;101952.19;5004846;28;20473;-80
2022/01/14 09:59:39;;;;;;;67.72;28.15;;;;;;;0.50;76.27;101946.06;4990884;28;20050;-81
2022/01/14 10:02:06;;;;;;;77.97;29.40;;;;;;;0.50;76.06;101943.47;4985373;28;20077;-81
2022/01/14 10:04:33;;;;;;;72.68;28.42;;;;;;;0.51;76.16;101948.69;4998467;28;20614;-82
2022/01/14 10:07:03;;;;;;;81.47;30.35;;;;;;;0.53;76.05;101946.03;5014105;28;20568;-81
2022/01/14 10:09:36;;;;;;;81.35;29.42;;;;;;;0.52;76.03;101947.78;5016494;28;20049;-81
2022/01/14 10:12:08;;;;;;;71.57;29.42;;;;;;;0.53;76.27;101941.66;5015059;28;20041;-81
2022/01/14 10:14:40;;;;;;;80.95;30.17;;;;;;;0.56;76.29;101938.13;5018835;28;20099;-81
2022/01/14 10:17:09;;;;;;;84.50;31.15;;;;;;;0.55;76.39;101932.06;5001646;28;20082;-81
2022/01/14 10:19:40;;;;;;;81.82;31.13;;;;;;;0.57;76.70;101932.91;5008862;28;20110;-81
2022/01/14 10:22:27;;;;;;;82.55;29.98;;;;;;;0.54;76.54;101935.56;5020176;28;20076;-80
2022/01/14 10:25:17;;;;;;;74.38;31.85;;;;;;;0.53;76.39;101928.59;5000199;28;20041;-81
2022/01/14 10:27:46;;;;;;;85.55;32.20;;;;;;;0.60;76.57;101932.00;4983833;28;20065;-82
2022/01/14 10:30:15;;;;;;;83.00;32.88;;;;;;;0.61;76.84;101932.00;5019735;28;20480;-81
2022/01/14 10:32:45;;;;;;;90.50;35.45;;;;;;;0.63;76.86;101924.97;5012111;28;20516;-81
2022/01/14 10:35:17;;;;;;;83.60;32.53;;;;;;;0.63;76.99;101921.50;5014121;28;20041;-81
2022/01/14 10:37:44;;;;;;;85.32;34.53;;;;;;;0.63;76.68;101922.34;5002824;28;20057;-81
2022/01/14 10:40:19;;;;;;;85.57;32.22;;;;;;;0.60;76.94;101924.16;4979807;28;20128;-81
2022/01/14 10:42:50;;;;;;;86.68;32.75;;;;;;;0.61;76.90;101921.53;5017855;28;20049;-83
2022/01/14 10:45:38;;;;;;;87.03;32.72;;;;;;;0.62;77.00;101922.38;4984288;28;20072;-82
2022/01/14 10:48:07;;;;;;;87.65;32.63;;;;;;;0.63;76.75;101922.34;5002195;28;20045;-82
2022/01/14 10:50:34;;;;;;;94.22;32.85;;;;;;;0.64;77.05;101916.25;5019806;28;20042;-83
2022/01/14 10:53:06;;;;;;;94.45;33.10;;;;;;;0.67;77.24;101911.88;5010043;28;20056;-82
2022/01/14 10:55:35;;;;;;;81.65;31.65;;;;;;;0.68;77.39;101908.34;5014389;28;20041;-83
2022/01/14 10:58:04;;;;;;;90.05;33.85;;;;;;;0.67;77.22;101906.66;5019372;28;20042;-82
2022/01/14 11:00:49;;;;;;;88.63;33.83;;;;;;;0.65;77.36;101909.28;5048441;28;20133;-82
2022/01/14 11:03:18;;;;;;;89.20;33.08;;;;;;;0.68;77.45;101910.97;4997838;28;20111;-81
2022/01/14 11:05:45;;;;;;;106.82;38.53;;;;;;;0.70;77.36;101910.06;4986090;28;20069;-81
2022/01/14 11:08:12;;;;;;;98.13;33.80;;;;;;;0.70;77.24;101906.59;5019249;28;20049;-83
2022/01/14 11:10:39;;;;;;;89.65;33.45;;;;;;;0.71;77.65;101900.47;5012957;28;20068;-83
2022/01/14 11:13:07;;;;;;;107.20;38.78;;;;;;;0.71;77.63;101896.09;5001216;28;20042;-83
2022/01/14 11:15:34;;;;;;;117.75;40.55;;;;;;;0.73;77.50;101896.09;4999843;28;20055;-83
2022/01/14 11:18:05;;;;;;;113.57;40.70;;;;;;;0.73;77.81;101893.47;5017517;28;20508;-82
2022/01/14 11:20:37;;;;;;;113.22;42.35;;;;;;;0.74;78.10;101888.22;5001450;28;20133;-82
2022/01/14 11:23:16;;;;;;;115.93;39.05;;;;;;;0.74;77.89;101883.00;4998108;28;20069;-82
2022/01/14 11:26:03;;;;;;;110.28;36.42;;;;;;;0.72;78.05;101882.16;5045349;28;20493;-82
2022/01/14 11:28:33;;;;;;;103.45;38.20;;;;;;;0.77;77.77;101874.25;5002415;28;20520;-82
2022/01/14 11:31:30;;;;;;;123.60;41.95;;;;;;;0.74;78.26;101877.78;5001355;28;20049;-82
2022/01/14 11:34:00;;;;;;;119.78;40.72;;;;;;;0.80;78.22;101867.19;4997940;28;20397;-82
2022/01/14 11:36:49;;;;;;;125.20;42.38;;;;;;;0.76;78.53;101860.28;5019706;28;20045;-83
2022/01/14 11:39:36;;;;;;;106.82;39.33;;;;;;;0.77;78.21;101855.94;5032842;28;20048;-83
2022/01/14 11:42:08;;;;;;;130.75;43.85;;;;;;;0.82;78.35;101851.50;4986109;28;20041;-82
2022/01/14 11:47:25;;;;;;;130.15;43.33;;;;;;;0.81;78.21;101845.38;4948247;28;20050;-83
2022/01/14 11:49:53;;;;;;;134.30;43.95;;;;;;;0.83;78.52;101845.38;5014855;28;20045;-83
2022/01/14 11:52:40;;;;;;;126.57;42.17;;;;;;;0.79;78.69;101834.09;4998558;28;20041;-83
2022/01/14 11:55:19;;;;;;;127.47;41.67;;;;;;;0.81;78.53;101819.22;5002226;28;20457;-82